14 sierpnia 2022

Czas Kod Pogoda Temp. Widoczność Sufit Wiatr METAR/SPECI
02:00
V
21 °C 10 km+ 11.000 ft 310° 310° 6 kt METAR LFBE 140000Z AUTO 31006KT 270V340 9999 FEW011/// SCT076/// BKN110/// ///CB 21/20 Q1009 TEMPO VRB20G30KT 4500 TSRA
01:30
M
22 °C 7 km - 300° 300° 10 kt METAR LFBE 132330Z AUTO 30010KT 7000 RA //////CB 22/20 Q1011
01:00
V
22 °C 10 km+ 12.000 ft 270° 270° 13 kt METAR LFBE 132300Z AUTO 27013KT 9999 -RA FEW025/// OVC120/// //////TCU 22/20 Q1011
00:30
V
24 °C 10 km+ 10.000 ft Var Var 11 - 25 kt METAR LFBE 132230Z AUTO VRB11G25KT 9999 -RA FEW028/// SCT070/// BKN100/// //////CB 24/19 Q1010
00:00
V
24 °C 10 km+ - Var Var 3 kt METAR LFBE 132200Z AUTO VRB03KT 9999 ///CB 24/20 Q1008

13 sierpnia 2022

Czas Kod Pogoda Temp. Widoczność Sufit Wiatr METAR/SPECI
23:30
V
24 °C 10 km+ - 270° 270° 8 kt METAR LFBE 132130Z AUTO 27008KT 9999 -RA ///CB 24/19 Q1009
23:00
V
26 °C 10 km+ - 260° 260° 18 kt METAR LFBE 132100Z AUTO 26018KT 9999 //////CB 26/19 Q1010
22:30
V
29 °C 10 km+ - 250° 250° 7 - 26 kt METAR LFBE 132030Z AUTO 25007G26KT 9999 ///TCU 29/19 Q1009
22:00
V
29 °C 10 km+ - 210° 210° 4 kt METAR LFBE 132000Z AUTO 21004KT CAVOK 29/18 Q1008 TEMPO VRB25G40KT 2000 TSGR BKN060CB
21:30
V
29 °C 10 km+ - Var Var 2 kt METAR LFBE 131930Z AUTO VRB02KT CAVOK 29/18 Q1008 TEMPO VRB25G40KT 2000 TSGR BKN060CB
21:00
V
31 °C 10 km+ - 170° 170° 2 kt METAR LFBE 131900Z AUTO 17002KT CAVOK 31/18 Q1008 TEMPO VRB25G40KT 2000 TSGR BKN060CB
20:30
V
31 °C 10 km+ - 210° 210° 3 kt METAR LFBE 131830Z AUTO 21003KT 170V230 CAVOK 31/18 Q1008 TEMPO VRB25G40KT 2000 TSGR BKN060CB
20:00
V
33 °C 10 km+ - 190° 190° 3 kt METAR LFBE 131800Z AUTO 19003KT CAVOK 33/17 Q1008 BECMG 30010KT
19:30
V
35 °C 10 km+ - 210° 210° 7 kt METAR LFBE 131730Z AUTO 21007KT CAVOK 35/17 Q1008 BECMG 30010KT
19:00
V
35 °C 10 km+ - 200° 200° 5 kt METAR LFBE 131700Z AUTO 20005KT 150V240 CAVOK 35/16 Q1008 BECMG 30010KT
18:30
V
36 °C 10 km+ - Var Var 3 kt METAR LFBE 131630Z AUTO VRB03KT CAVOK 36/16 Q1008 NOSIG
18:00
V
36 °C 10 km+ - 180° 180° 3 kt METAR LFBE 131600Z AUTO 18003KT 120V230 CAVOK 36/16 Q1008 BECMG 30010KT
17:30
V
36 °C 10 km+ - Var Var 2 kt METAR LFBE 131530Z AUTO VRB02KT CAVOK 36/17 Q1009 NOSIG
17:00
V
35 °C 10 km+ - 270° 270° 6 kt METAR LFBE 131500Z AUTO 27006KT 220V300 CAVOK 35/18 Q1009 NOSIG
16:30
V
36 °C 10 km+ - 210° 210° 3 kt METAR LFBE 131430Z AUTO 21003KT 100V270 CAVOK 36/16 Q1010 NOSIG
16:00
V
35 °C 10 km+ - Var Var 3 kt METAR LFBE 131400Z AUTO VRB03KT CAVOK 35/17 Q1010 NOSIG
15:30
V
34 °C 10 km+ - Var Var 3 kt METAR LFBE 131330Z AUTO VRB03KT CAVOK 34/17 Q1010 NOSIG
15:00
V
34 °C 10 km+ - Var Var 2 kt METAR LFBE 131300Z AUTO VRB02KT CAVOK 34/18 Q1010 NOSIG
14:30
V
33 °C 10 km+ - Var Var 3 kt METAR LFBE 131230Z AUTO VRB03KT CAVOK 33/18 Q1011 NOSIG
14:00
V
31 °C 10 km+ - Var Var 4 kt METAR LFBE 131200Z AUTO VRB04KT CAVOK 31/18 Q1011 NOSIG
13:30
V
31 °C 10 km+ - Var Var 4 kt METAR LFBE 131130Z AUTO VRB04KT CAVOK 31/19 Q1011 NOSIG
13:00
V
30 °C 10 km+ - Var Var 3 kt METAR LFBE 131100Z AUTO VRB03KT CAVOK 30/19 Q1012 NOSIG
12:30
V
29 °C 10 km+ - 190° 190° 3 kt METAR LFBE 131030Z AUTO 19003KT 110V280 CAVOK 29/19 Q1012 NOSIG
12:00
V
27 °C 10 km+ - 240° 240° 4 kt METAR LFBE 131000Z AUTO 24004KT 170V290 CAVOK 27/19 Q1012 NOSIG
11:30
V
26 °C 10 km+ - 230° 230° 5 kt METAR LFBE 130930Z AUTO 23005KT 150V280 CAVOK 26/19 Q1013 NOSIG
11:00
V
25 °C 10 km+ - 240° 240° 4 kt METAR LFBE 130900Z AUTO 24004KT 190V300 9999 FEW020 25/19 Q1013 NOSIG
10:30
M
24 °C 10 km+ 1.900 ft 270° 270° 5 kt METAR LFBE 130830Z AUTO 27005KT 9999 BKN019 24/18 Q1013 NOSIG
10:00
M
23 °C 10 km+ 1.800 ft 240° 240° 5 kt METAR LFBE 130800Z AUTO 24005KT 200V280 9999 OVC018 23/19 Q1013 NOSIG
09:30
M
23 °C 10 km+ 1.600 ft 270° 270° 6 kt METAR LFBE 130730Z AUTO 27006KT 240V300 9999 OVC016 23/18 Q1012 NOSIG
09:00
M
22 °C 10 km+ 1.500 ft 250° 250° 6 kt METAR LFBE 130700Z AUTO 25006KT 220V280 9999 OVC015 22/18 Q1013 NOSIG
08:30
M
22 °C 10 km+ 1.500 ft 250° 250° 7 kt METAR LFBE 130630Z AUTO 25007KT 9999 OVC015 22/18 Q1012 NOSIG
08:00
M
21 °C 10 km+ 1.400 ft 250° 250° 7 kt METAR LFBE 130600Z AUTO 25007KT 9999 OVC014 21/18 Q1012 BECMG NSC
07:30
M
21 °C 10 km+ 1.200 ft 250° 250° 5 kt METAR LFBE 130530Z AUTO 25005KT 9999 OVC012 21/19 Q1012 BECMG NSC
07:00
M
21 °C 10 km+ 1.200 ft 250° 250° 6 kt METAR LFBE 130500Z AUTO 25006KT 9999 OVC012 21/19 Q1012 BECMG NSC
06:30
I
21 °C 10 km+ 900 ft 240° 240° 6 kt METAR LFBE 130430Z AUTO 24006KT 9999 OVC009 21/19 Q1012 BECMG NSC
06:00
I
21 °C 10 km+ 900 ft 250° 250° 4 kt METAR LFBE 130400Z AUTO 25004KT 9999 OVC009 21/20 Q1012 TEMPO BKN010
05:30
M
21 °C 10 km+ 1.000 ft 240° 240° 3 kt METAR LFBE 130330Z AUTO 24003KT 9999 OVC010 21/19 Q1012 NOSIG
05:00
M
20 °C 10 km+ 1.100 ft 250° 250° 4 kt METAR LFBE 130300Z AUTO 25004KT 9999 BKN011 20/19 Q1012 NOSIG
04:30
M
21 °C 10 km+ 1.100 ft 240° 240° 4 kt METAR LFBE 130230Z AUTO 24004KT 9999 BKN011 21/19 Q1012 NOSIG
04:00
M
22 °C 10 km+ 1.100 ft 250° 250° 5 kt METAR LFBE 130200Z AUTO 25005KT 9999 OVC011 22/20 Q1012 BECMG NSC
03:30
M
22 °C 10 km+ 1.100 ft 260° 260° 6 kt METAR LFBE 130130Z AUTO 26006KT 9999 BKN011 22/20 Q1012 BECMG NSC
03:00
V
22 °C 10 km+ - 260° 260° 7 kt METAR LFBE 130100Z AUTO 26007KT CAVOK 22/20 Q1012 NOSIG
02:30
V
23 °C 10 km+ - 270° 270° 9 kt METAR LFBE 130030Z AUTO 27009KT CAVOK 23/19 Q1012 NOSIG
02:00
V
24 °C 10 km+ - 270° 270° 9 kt METAR LFBE 130000Z AUTO 27009KT CAVOK 24/17 Q1012 NOSIG
01:30
V
25 °C 10 km+ - 280° 280° 9 kt METAR LFBE 122330Z AUTO 28009KT CAVOK 25/16 Q1012
01:00
V
26 °C 10 km+ - 270° 270° 10 kt METAR LFBE 122300Z AUTO 27010KT CAVOK 26/17 Q1012
00:30
V
27 °C 10 km+ - 250° 250° 6 kt METAR LFBE 122230Z AUTO 25006KT CAVOK 27/16 Q1011
00:00
V
28 °C 10 km+ - 270° 270° 8 kt METAR LFBE 122200Z AUTO 27008KT CAVOK 28/17 Q1011

12 sierpnia 2022

Czas Kod Pogoda Temp. Widoczność Sufit Wiatr METAR/SPECI
23:30
V
28 °C 10 km+ - 260° 260° 7 kt METAR LFBE 122130Z AUTO 26007KT CAVOK 28/17 Q1011
23:00
V
29 °C 10 km+ - 270° 270° 7 kt METAR LFBE 122100Z AUTO 27007KT CAVOK 29/17 Q1011
22:30
V
30 °C 10 km+ - 270° 270° 8 kt METAR LFBE 122030Z AUTO 27008KT CAVOK 30/17 Q1011
22:00
V
32 °C 10 km+ - 270° 270° 8 kt METAR LFBE 122000Z AUTO 27008KT CAVOK 32/17 Q1010 TEMPO 30015G25KT
21:30
V
32 °C 10 km+ - 280° 280° 7 kt METAR LFBE 121930Z AUTO 28007KT CAVOK 32/17 Q1010 TEMPO 30015G25KT
21:00
V
34 °C 10 km+ - Var Var 2 kt METAR LFBE 121900Z AUTO VRB02KT CAVOK 34/15 Q1009 TEMPO 30015G25KT
20:30
V
36 °C 10 km+ - 260° 260° 7 kt METAR LFBE 121830Z AUTO 26007KT CAVOK 36/15 Q1009 TEMPO 30015G25KT
20:00
V
38 °C 10 km+ - 260° 260° 9 kt METAR LFBE 121800Z AUTO 26009KT CAVOK 38/15 Q1009 TEMPO 30015G25KT
19:30
V
38 °C 10 km+ - 250° 250° 9 kt METAR LFBE 121730Z AUTO 25009KT CAVOK 38/15 Q1009 TEMPO 30015G25KT
19:00
V
39 °C 10 km+ - 270° 270° 9 kt METAR LFBE 121700Z AUTO 27009KT 200V300 CAVOK 39/15 Q1009 TEMPO 30015G25KT
18:30
V
39 °C 10 km+ - 260° 260° 7 kt METAR LFBE 121630Z AUTO 26007KT 220V300 CAVOK 39/16 Q1009 TEMPO 30015G25KT
18:00
V
39 °C 10 km+ - 260° 260° 8 kt METAR LFBE 121600Z AUTO 26008KT 200V320 CAVOK 39/16 Q1009 NOSIG
17:30
V
40 °C 10 km+ - 270° 270° 7 kt METAR LFBE 121530Z AUTO 27007KT 200V320 CAVOK 40/16 Q1010 NOSIG
17:00
V
39 °C 10 km+ - 290° 290° 7 kt METAR LFBE 121500Z AUTO 29007KT 250V330 CAVOK 39/16 Q1010 NOSIG
16:30
V
39 °C 10 km+ - 260° 260° 6 kt METAR LFBE 121430Z AUTO 26006KT 190V310 CAVOK 39/16 Q1010 NOSIG
16:00
V
39 °C 10 km+ - 340° 340° 4 kt METAR LFBE 121400Z AUTO 34004KT 260V040 CAVOK 39/17 Q1010 NOSIG
15:30
V
38 °C 10 km+ - 320° 320° 6 kt METAR LFBE 121330Z AUTO 32006KT 270V360 CAVOK 38/16 Q1011 NOSIG
15:00
V
38 °C 10 km+ - 310° 310° 5 kt METAR LFBE 121300Z AUTO 31005KT 230V340 CAVOK 38/17 Q1011 NOSIG
14:30
V
37 °C 10 km+ - 320° 320° 6 kt METAR LFBE 121230Z AUTO 32006KT 240V020 CAVOK 37/18 Q1011 NOSIG
14:00
V
37 °C 10 km+ - 300° 300° 6 kt METAR LFBE 121200Z AUTO 30006KT 250V360 CAVOK 37/19 Q1011 NOSIG
13:30
V
37 °C 10 km+ - Var Var 5 kt METAR LFBE 121130Z AUTO VRB05KT CAVOK 37/20 Q1012 NOSIG
13:00
V
36 °C 10 km+ - Var Var 3 kt METAR LFBE 121100Z AUTO VRB03KT CAVOK 36/19 Q1012 NOSIG
12:30
V
35 °C 10 km+ - Var Var 3 kt METAR LFBE 121030Z AUTO VRB03KT CAVOK 35/19 Q1012 NOSIG
12:00
V
34 °C 10 km+ - Var Var 3 kt METAR LFBE 121000Z AUTO VRB03KT CAVOK 34/20 Q1012 NOSIG
11:30
V
33 °C 10 km+ - 360° 360° 3 kt METAR LFBE 120930Z AUTO 36003KT 290V100 CAVOK 33/21 Q1012 NOSIG
11:00
V
32 °C 10 km+ - Var Var 3 kt METAR LFBE 120900Z AUTO VRB03KT CAVOK 32/21 Q1012 NOSIG
10:30
V
30 °C 10 km+ - 040° 040° 4 kt METAR LFBE 120830Z AUTO 04004KT 010V070 CAVOK 30/20 Q1012 BECMG 30010KT
10:00
V
28 °C 10 km+ - 030° 030° 5 kt METAR LFBE 120800Z AUTO 03005KT 360V060 CAVOK 28/19 Q1012 NOSIG
09:30
V
26 °C 10 km+ - 050° 050° 4 kt METAR LFBE 120730Z AUTO 05004KT CAVOK 26/18 Q1012 NOSIG
09:00
V
24 °C 10 km+ - 080° 080° 4 kt METAR LFBE 120700Z AUTO 08004KT CAVOK 24/17 Q1012 NOSIG
08:30
V
22 °C 10 km+ - 070° 070° 4 kt METAR LFBE 120630Z AUTO 07004KT CAVOK 22/17 Q1012 NOSIG
08:00
V
20 °C 10 km+ - 070° 070° 3 kt METAR LFBE 120600Z AUTO 07003KT CAVOK 20/17 Q1012 NOSIG
07:30
V
19 °C 10 km+ - Var Var 3 kt METAR LFBE 120530Z AUTO VRB03KT CAVOK 19/16 Q1012 NOSIG
07:00
V
18 °C 10 km+ - 070° 070° 4 kt METAR LFBE 120500Z AUTO 07004KT CAVOK 18/16 Q1012 NOSIG
06:30
V
18 °C 10 km+ - 060° 060° 3 kt METAR LFBE 120430Z AUTO 06003KT CAVOK 18/16 Q1012 NOSIG
06:00
V
19 °C 10 km+ - 070° 070° 2 kt METAR LFBE 120400Z AUTO 07002KT CAVOK 19/16 Q1012 NOSIG
05:30
V
19 °C 10 km+ - 070° 070° 4 kt METAR LFBE 120330Z AUTO 07004KT CAVOK 19/16 Q1012 NOSIG
05:00
V
19 °C 10 km+ - 070° 070° 3 kt METAR LFBE 120300Z AUTO 07003KT CAVOK 19/16 Q1012 NOSIG
04:30
V
19 °C 10 km+ - Var 000° 0 kt METAR LFBE 120230Z AUTO 00000KT CAVOK 19/16 Q1012 NOSIG
04:00
V
19 °C 10 km+ - Var Var 2 kt METAR LFBE 120200Z AUTO VRB02KT CAVOK 19/16 Q1012 NOSIG
03:30
V
20 °C 10 km+ - Var 000° 0 kt METAR LFBE 120130Z AUTO 00000KT CAVOK 20/16 Q1012 NOSIG
03:00
V
20 °C 10 km+ - 060° 060° 4 kt METAR LFBE 120100Z AUTO 06004KT CAVOK 20/17 Q1012 NOSIG
02:30
V
20 °C 10 km+ - Var Var 3 kt METAR LFBE 120030Z AUTO VRB03KT CAVOK 20/17 Q1012 NOSIG
02:00
V
21 °C 10 km+ - 080° 080° 3 kt METAR LFBE 120000Z AUTO 08003KT CAVOK 21/17 Q1012
01:30
V
22 °C 10 km+ - 130° 130° 1 kt METAR LFBE 112330Z AUTO 13001KT CAVOK 22/17 Q1012
01:00
V
22 °C 10 km+ - Var Var 1 kt METAR LFBE 112300Z AUTO VRB01KT CAVOK 22/17 Q1012
00:30
V
22 °C 10 km+ - 070° 070° 2 kt METAR LFBE 112230Z AUTO 07002KT CAVOK 22/17 Q1012
00:00
V
23 °C 10 km+ - 090° 090° 2 kt METAR LFBE 112200Z AUTO 09002KT CAVOK 23/17 Q1012

11 sierpnia 2022

Czas Kod Pogoda Temp. Widoczność Sufit Wiatr METAR/SPECI
23:30
V
24 °C 10 km+ - 050° 050° 2 kt METAR LFBE 112130Z AUTO 05002KT CAVOK 24/18 Q1012
23:00
V
25 °C 10 km+ - 060° 060° 2 kt METAR LFBE 112100Z AUTO 06002KT CAVOK 25/17 Q1012
22:30
V
26 °C 10 km+ - Var Var 2 kt METAR LFBE 112030Z AUTO VRB02KT CAVOK 26/18 Q1012
22:00
V
28 °C 10 km+ - 080° 080° 2 kt METAR LFBE 112000Z AUTO 08002KT CAVOK 28/18 Q1012 NOSIG
21:30
V
29 °C 10 km+ - 080° 080° 2 kt METAR LFBE 111930Z AUTO 08002KT CAVOK 29/17 Q1011 NOSIG
21:00
V
32 °C 10 km+ - 140° 140° 1 kt METAR LFBE 111900Z AUTO 14001KT CAVOK 32/17 Q1011 NOSIG
20:30
V
35 °C 10 km+ - Var Var 1 kt METAR LFBE 111830Z AUTO VRB01KT CAVOK 35/16 Q1011 NOSIG
20:00
V
37 °C 10 km+ - 020° 020° 1 kt METAR LFBE 111800Z AUTO 02001KT CAVOK 37/14 Q1011 NOSIG
19:30
V
37 °C 10 km+ - Var Var 2 kt METAR LFBE 111730Z AUTO VRB02KT CAVOK 37/15 Q1011 NOSIG
19:00
V
37 °C 10 km+ - 340° 340° 3 kt METAR LFBE 111700Z AUTO 34003KT CAVOK 37/15 Q1011 NOSIG
18:30
V
38 °C 10 km+ - Var Var 3 kt METAR LFBE 111630Z AUTO VRB03KT CAVOK 38/14 Q1011 NOSIG
18:00
V
39 °C 10 km+ - Var Var 5 kt METAR LFBE 111600Z AUTO VRB05KT CAVOK 39/14 Q1011 NOSIG
17:30
V
38 °C 10 km+ - Var Var 3 kt METAR LFBE 111530Z AUTO VRB03KT CAVOK 38/15 Q1011 NOSIG
17:00
V
38 °C 10 km+ - Var Var 3 kt METAR LFBE 111500Z AUTO VRB03KT CAVOK 38/15 Q1011 NOSIG
Starsze dane

My i osoby trzecie śledzimy twoje zachowanie w internecie na naszej stronie za pomocą plików cookie. Jeśli kontynuujesz, zakładamy, że zgadzasz się z naszą polityką plików cookie. Dowiedz się więcej